Main page
METAR-TAF:

METAR-TAF

Airports :

Santa Maria Airport

Santa Maria, Rio Grande do Sul, Brazil

latitude: 29-43S, longitude: 053-42W, elevation: 85 m

Current weather observation

The report was made 4 hours and 33 minutes ago, at 03:00 UTC
Wind 2 kt from the West/Southwest
Temperature 15°C
Humidity 100%
Pressure 1012 hPa
Visibility 10 km or more
no clouds below 1500 m and no cumulonimbus

METAR: SBSM 190300Z 24002KT CAVOK 15/15 Q1012

Time: 04:33 (07:33 UTC)

Forecast

The report was made 6 hours and 3 minutes ago, at 01:30 UTC
Forecast valid from 19 at 06 UTC to 19 at 18 UTC
Wind 5 kt from the East
Visibility 10 km or more
no clouds below 1500 m and no cumulonimbus
Temporary
from 19 at 06 UTC to 19 at 11 UTC
Visibility: 0500 m
at a height of 200 ft
fog

TAF: SBSM 190130Z 1906/1918 10005KT CAVOK TN14/1908Z TX27/1917Z TEMPO 1906/1911 0500 FG VV002 RMK PEB

Weather observations and forecasts of more than 4000 airports (METAR and TAF reports).

The available stations are represented by yellow and red dots on the map.

Hover mouse over dot to see the name of the station.

Then click to see weather observations and forecasts.

To change the map : click on the green buttons with a black cross to zoom in, on the green button with a dash to zoom out, or on the green arrows for adjacent maps.


METAR-TAF: